Terminal Aerodrome Forecast
Issued by NWS

Home | Current Version | Previous Version | Text Only | Print | Product List | Glossary On
Versions: 1 2 3 4 5 6 7 8 9 10 11 12 13 14 15 16 17 18 19 20 21 22 23 24 25 26 27 28 29
000
FTUS43 KDTX 291120
TAFPTK
TAF
KPTK 291120Z 2912/3012 20005KT P6SM SCT045 BKN200
     FM291500 21010KT P6SM SCT050 BKN250
     FM291700 22013G21KT P6SM BKN060
      TEMPO 2919/2923 4SM TSRA SCT035CB BKN050
     FM300100 27009KT P6SM SCT060 BKN200
     FM300300 27005KT P6SM SKC=

USA.gov is the U.S. government's official web portal to all federal, state and local government web resources and services.